Weather observations for the past three days for
San Marcos, San Marcos Municipal Airport
Imperial (Metric)
Date Time (cdt) Wind (mph) Vis. (mi.) Weather Sky Cond. Temperature (ºF) Relative Humidity Wind Chill (°F) Heat Index (°F) Pressure Precipitation (in)
Air Dwpt 6 hour altimeter (in) sea level (mb) 1 hr 3 hr 6 hr
Max. Min.
04 06:56 SE 5 10.00 Fair CLR 59 57 93% 29.97 0.0
04 05:56 Calm 10.00 Fair CLR 57 55 93% 29.99 1014.8
04 04:56 Calm 10.00 Fair CLR 57.9 55 90% 29.99 1015.0
04 03:56 S 5 10.00 Fair CLR 61 55 81% 30 1015.3
04 02:56 S 7 10.00 Fair CLR 62.1 55.9 80% 30 1015.4
04 00:56 S 7 10.00 Fair CLR 66 55 77 64 68% 30.06 1017.2
03 23:56 S 9 10.00 Fair CLR 66 55 68% 30.06 1017.3
03 22:56 S 10 10.00 Fair CLR 64.9 54 68% 30.07 1017.7
03 21:56 SE 8 10.00 Fair CLR 66.9 52 59% 30.06 1017.3
03 20:56 SE 7 10.00 Fair CLR 66.9 52 59% 30.05 1016.9
03 19:56 SE 7 10.00 Fair CLR 71.1 51.1 49% 30.03 1016.6
03 18:56 S 9 10.00 Fair CLR 77 48 80.1 77 36% 78 30.05 1017.2
03 17:56 S 14 10.00 Fair CLR 79 50 36% 79 30.05 1017.2
03 16:56 SE 7 10.00 Fair CLR 79 46.9 32% 79 30.08 1018.0
03 15:56 S 8 10.00 Fair CLR 79 48 34% 79 30.11 1019.1
03 14:56 S 12 10.00 Fair CLR 79 46 31% 79 30.14 1020.2
03 12:56 S 14 G 21 10.00 Fair CLR 77 50 78.1 50 39% 78 30.19 1022.0
03 11:56 S 12 10.00 Fair CLR 75.9 48.9 39% 78 30.22 1022.9
03 10:56 S 10 10.00 Fair CLR 73.9 50 43% 30.23 1023.3
03 09:56 SW 7 10.00 Fair CLR 70 55 59% 30.23 1023.1
03 08:56 NW 3 10.00 Fair CLR 63 55 76% 30.22 1023.1
03 07:56 W 5 10.00 Fair CLR 54 51.1 90% 30.21 1022.7
03 06:56 NW 3 10.00 Fair CLR 50 48 55 50 93% 30.2 1022.3
03 05:56 NW 6 10.00 Fair CLR 50 48 93% 48 30.18 1021.7
03 04:56 NW 5 10.00 Fair CLR 51.1 48.9 92% 30.17 1021.3
03 03:56 NW 5 10.00 Fair CLR 51.1 48.9 92% 30.17 1021.3
03 02:56 NW 6 10.00 Fair CLR 52 50 93% 30.17 1021.3
03 01:56 NW 6 10.00 Fair CLR 54 51.1 90% 30.19 1021.9
03 00:56 NW 5 10.00 Fair CLR 55 52 73 55 90% 30.19 1022.0
02 23:56 NW 7 10.00 Fair CLR 55.9 53.1 90% 30.18 1021.6
02 22:56 NW 5 10.00 Fair CLR 57.9 53.1 84% 30.18 1021.6
02 21:56 Calm 10.00 Fair CLR 63 52 68% 30.16 1021.0
02 20:56 E 5 10.00 Fair CLR 63 55 76% 30.14 1020.4
02 19:56 E 6 10.00 Fair CLR 68 53.1 59% 30.13 1020.0
02 18:56 E 6 10.00 Fair CLR 73 46.9 75 69.1 40% 30.13 1019.8
02 17:56 NE 12 10.00 Fair CLR 73.9 48.9 41% 30.12 1019.6
02 16:56 NE 8 10.00 Fair CLR 75 48 39% 77 30.12 1019.7
02 15:56 NE 15 10.00 Fair CLR 75 50 42% 78 30.14 1020.4
02 14:56 N 9 10.00 Fair CLR 73 51.1 46% 30.16 1021.0
02 13:56 Vrbl 7 G 17 10.00 Partly Cloudy SCT050 71.1 52 51% 30.18 1021.5
02 12:56 NE 13 10.00 Fair CLR 70 53.1 70 50 55% 30.2 1022.3
02 11:56 NE 10 G 16 10.00 Fair CLR 69.1 51.1 53% 30.22 1023.0
02 10:56 N 10 10.00 Fair CLR 66 52 61% 30.22 1023.1
02 09:56 N 13 10.00 Fair CLR 63 51.1 65% 30.2 1022.5
02 08:56 N 12 10.00 Fair CLR 59 51.1 75% 30.19 1021.9
02 07:56 N 9 10.00 Fair CLR 54 48.9 83% 30.17 1021.4
02 06:56 N 12 10.00 Fair CLR 50 48 54 50 93% 46 30.14 1020.3
02 05:56 N 10 10.00 Fair CLR 50 48 93% 46 30.13 1019.9
02 04:56 N 3 10.00 Fair CLR 52 48.9 89% 30.11 1019.3
02 03:56 N 12 10.00 Fair CLR 52 48.9 89% 30.07 1018.0
02 02:56 N 12 10.00 Fair CLR 53.1 50 89% 30.06 1017.6
02 01:56 N 7 10.00 Fair CLR 53.1 50 89% 30.07 1018.0
02 00:56 N 10 10.00 Fair CLR 54 50 57.9 54 87% 30.07 1018.0
01 23:56 N 13 10.00 A Few Clouds FEW065 55 48.9 80% 30.07 1017.8
01 22:56 N 15 G 25 10.00 Overcast OVC060 55.9 50 81% 30.06 0.0
01 21:56 N 16 10.00 Overcast BKN050 OVC075 55.9 51.1 84% 30.04 0.0
01 20:56 N 20 10.00 Overcast OVC014 55.9 52 87% 30.01 0.0
01 19:56 N 17 G 25 10.00 Overcast OVC014 57 53.1 87% 29.99 0.0
01 18:56 NE 17 G 26 10.00 Overcast OVC012 57.9 55 63 57.9 90% 29.95 0.0 0.15
01 17:56 N 21 G 29 10.00 Overcast and Breezy BKN011 BKN019 OVC025 59 55.9 90% 29.94 0.0 0.03
01 16:56 N 17 G 24 10.00 Light Rain OVC011 60.1 57.9 93% 29.92 0.0 0.01
01 15:56 N 16 10.00 Overcast OVC011 61 57 87% 29.89 0.0 0.11
01 14:56 NE 22 G 26 10.00 Overcast and Breezy BKN009 OVC070 63 60.1 90% 29.85 0.0 0.04
01 13:56 N 16 10.00 Light Rain BKN008 OVC070 61 59 93% 29.89 0.0 0.07
01 11:56 N 16 10.00 NULL NULL 62.1 59 90% 29.89 0.0
01 10:56 NE 18 10.00 Light Rain OVC008 62.1 61 96% 29.86 1010.7 0.08
01 09:56 NE 16 10.00 Light Rain OVC008 61 59 93% 29.9 1012.1 0.08 0.27
01 08:56 NW 13 10.00 Thunderstorm Light Rain BKN008 OVC037 61 60.1 97% 30 1015.2 0.15
01 07:56 NE 9 10.00 Overcast OVC008 61 60.1 97% 29.91 1012.4 0.04
Date Time (cdt) Wind (mph) Vis. (mi.) Weather Sky Cond. Air Dwpt Max. Min. Relative Humidity Wind Chill (°F) Heat Index (°F) altimeter (in) sea level (mb) 1 hr 3 hr 6 hr
6 hour
Temperature (ºF) Pressure Precipitation (in)